Time;durP1;ratioP1;P1;durP2;ratioP2;P2;SDS_P1;SDS_P2;PMS_P1;PMS_P2;Temp;Humidity;BMP_temperature;BMP_pressure;BME280_temperature;BME280_humidity;BME280_pressure;Samples;Min_cycle;Max_cycle;Signal;HPM_P1;HPM_P2
2022/06/27 00:00:57;;;;;;;;;;;21.30;99.90;;;;;;5027997;28;19913;-75
2022/06/27 00:03:22;;;;;;;;;;;21.30;99.90;;;;;;5023796;28;19917;-76
2022/06/27 00:05:48;;;;;;;;;;;21.30;99.90;;;;;;5026912;28;19909;-76
2022/06/27 00:08:13;;;;;;;;;;;21.30;99.90;;;;;;5021672;28;19909;-76
2022/06/27 00:10:40;;;;;;;;;;;21.20;99.90;;;;;;5022451;28;19917;-76
2022/06/27 00:13:05;;;;;;;;;;;21.20;99.90;;;;;;5024302;28;19920;-76
2022/06/27 00:15:31;;;;;;;;;;;21.20;99.90;;;;;;5028285;28;19909;-76
2022/06/27 00:17:57;;;;;;;;;;;21.20;99.90;;;;;;5029904;28;19913;-76
2022/06/27 00:20:24;;;;;;;;;;;21.20;99.90;;;;;;5030580;28;19936;-76
2022/06/27 00:22:50;;;;;;;;;;;21.20;99.90;;;;;;5029641;28;20508;-76
2022/06/27 00:25:16;;;;;;;;;;;21.10;99.90;;;;;;5030928;28;19920;-76
2022/06/27 00:27:41;;;;;;;;;;;21.10;99.90;;;;;;5026971;28;19910;-77
2022/06/27 00:30:07;;;;;;;;;;;21.10;99.90;;;;;;5031182;28;19943;-76
2022/06/27 00:32:32;;;;;;;;;;;21.10;99.90;;;;;;5031576;28;20003;-76
2022/06/27 00:34:58;;;;;;;;;;;21.10;99.90;;;;;;5031409;28;19920;-76
2022/06/27 00:37:24;;;;;;;;;;;21.00;99.90;;;;;;5030360;28;19909;-76
2022/06/27 00:39:49;;;;;;;;;;;21.00;99.90;;;;;;5029920;28;19909;-76
2022/06/27 00:42:15;;;;;;;;;;;21.00;99.90;;;;;;5028774;28;20311;-76
2022/06/27 00:44:41;;;;;;;;;;;21.00;99.90;;;;;;5029407;28;20007;-75
2022/06/27 00:47:08;;;;;;;;;;;21.00;99.90;;;;;;5028300;28;19913;-76
2022/06/27 00:49:34;;;;;;;;;;;20.90;99.90;;;;;;5030179;28;19916;-77
2022/06/27 00:52:02;;;;;;;;;;;20.90;99.90;;;;;;5029662;28;19909;-76
2022/06/27 00:54:27;;;;;;;;;;;20.90;99.90;;;;;;5030283;28;20020;-76
2022/06/27 00:56:53;;;;;;;;;;;20.90;99.90;;;;;;5029715;28;19916;-76
2022/06/27 00:59:18;;;;;;;;;;;20.90;99.90;;;;;;5030848;28;19909;-76
2022/06/27 01:01:44;;;;;;;;;;;20.90;99.90;;;;;;5030974;28;20000;-76
2022/06/27 01:04:10;;;;;;;;;;;20.80;99.90;;;;;;5029014;28;20000;-76
2022/06/27 01:06:35;;;;;;;;;;;20.80;99.90;;;;;;5029349;28;19920;-77
2022/06/27 01:09:00;;;;;;;;;;;20.80;99.90;;;;;;5030840;28;20539;-76
2022/06/27 01:11:26;;;;;;;;;;;20.70;99.90;;;;;;5030100;28;20599;-76
2022/06/27 01:13:52;;;;;;;;;;;20.80;99.90;;;;;;5029576;28;19919;-77
2022/06/27 01:16:18;;;;;;;;;;;20.80;99.90;;;;;;5028013;28;19909;-77
2022/06/27 01:18:44;;;;;;;;;;;20.70;99.90;;;;;;5027939;28;19917;-76
2022/06/27 01:21:16;;;;;;;;;;;20.70;99.90;;;;;;5028833;28;20286;-76
2022/06/27 01:23:42;;;;;;;;;;;20.70;99.90;;;;;;5026488;28;19940;-76
2022/06/27 01:26:09;;;;;;;;;;;20.70;99.90;;;;;;5026934;28;20519;-76
2022/06/27 01:28:34;;;;;;;;;;;20.60;99.90;;;;;;5029154;28;19915;-76
2022/06/27 01:30:59;;;;;;;;;;;20.60;99.90;;;;;;5026065;28;19909;-76
2022/06/27 01:33:25;;;;;;;;;;;20.60;99.90;;;;;;5033681;28;19909;-76
2022/06/27 01:36:41;;;;;;;;;;;20.60;99.90;;;;;;5024963;28;19916;-77
2022/06/27 01:38:45;;;;;;;;;;;20.60;99.90;;;;;;5030037;28;19952;-76
2022/06/27 01:41:10;;;;;;;;;;;20.50;99.90;;;;;;5025206;28;19923;-76
2022/06/27 01:43:36;;;;;;;;;;;20.60;99.90;;;;;;5024993;28;19913;-76
2022/06/27 01:46:01;;;;;;;;;;;20.50;99.90;;;;;;5029050;28;20498;-77
2022/06/27 01:48:27;;;;;;;;;;;20.50;99.90;;;;;;5027988;28;20342;-76
2022/06/27 01:50:54;;;;;;;;;;;20.50;99.90;;;;;;5033729;28;20380;-76
2022/06/27 01:53:20;;;;;;;;;;;20.40;99.90;;;;;;5028361;28;20295;-76
2022/06/27 01:55:45;;;;;;;;;;;20.40;99.90;;;;;;5028198;28;20414;-76
2022/06/27 01:58:11;;;;;;;;;;;20.40;99.90;;;;;;5028048;28;19917;-77
2022/06/27 02:00:37;;;;;;;;;;;20.40;99.90;;;;;;5029766;28;19939;-76
2022/06/27 02:03:03;;;;;;;;;;;20.40;99.90;;;;;;5028240;28;19949;-76
2022/06/27 02:05:29;;;;;;;;;;;20.40;99.90;;;;;;5030923;28;19945;-76
2022/06/27 02:07:57;;;;;;;;;;;20.40;99.90;;;;;;5028977;28;19909;-76
2022/06/27 02:10:22;;;;;;;;;;;20.30;99.90;;;;;;5029228;28;19909;-76
2022/06/27 02:12:48;;;;;;;;;;;20.30;99.90;;;;;;5027535;28;19916;-75
2022/06/27 02:15:14;;;;;;;;;;;20.30;99.90;;;;;;5027681;28;19920;-76
2022/06/27 02:17:39;;;;;;;;;;;20.30;99.90;;;;;;5034754;28;19909;-76
2022/06/27 02:20:06;;;;;;;;;;;20.20;99.90;;;;;;5027840;28;19913;-75
2022/06/27 02:22:31;;;;;;;;;;;20.30;99.90;;;;;;5027885;28;20371;-76
2022/06/27 02:24:56;;;;;;;;;;;20.30;99.90;;;;;;5027140;28;19909;-76
2022/06/27 02:27:23;;;;;;;;;;;20.20;99.90;;;;;;5027749;28;19909;-76
2022/06/27 02:29:48;;;;;;;;;;;20.20;99.90;;;;;;5029876;28;19916;-76
2022/06/27 02:32:13;;;;;;;;;;;20.20;99.90;;;;;;5024678;28;19910;-76
2022/06/27 02:34:39;;;;;;;;;;;20.20;99.90;;;;;;5028690;28;19917;-76
2022/06/27 02:40:01;;;;;;;;;;;20.20;99.90;;;;;;5024391;28;19912;-76
2022/06/27 02:42:27;;;;;;;;;;;20.20;99.90;;;;;;5026755;28;19921;-77
2022/06/27 02:44:53;;;;;;;;;;;20.20;99.90;;;;;;5029030;28;19909;-76
2022/06/27 02:47:21;;;;;;;;;;;20.20;99.90;;;;;;5026720;28;20004;-75
2022/06/27 02:49:47;;;;;;;;;;;20.10;99.90;;;;;;5025408;28;19909;-76
2022/06/27 02:52:16;;;;;;;;;;;20.10;99.90;;;;;;5026436;28;20466;-76
2022/06/27 02:54:47;;;;;;;;;;;20.10;99.90;;;;;;5026412;28;19927;-76
2022/06/27 02:57:21;;;;;;;;;;;20.10;99.90;;;;;;5026728;28;19915;-76
2022/06/27 02:59:48;;;;;;;;;;;20.10;99.90;;;;;;5024072;28;20302;-76
2022/06/27 03:02:15;;;;;;;;;;;20.10;99.90;;;;;;5023748;28;20043;-76
2022/06/27 03:04:40;;;;;;;;;;;20.10;99.90;;;;;;5027580;28;19916;-76
2022/06/27 03:07:06;;;;;;;;;;;20.10;99.90;;;;;;5024900;28;19919;-75
2022/06/27 03:09:31;;;;;;;;;;;20.10;99.90;;;;;;5025895;28;19953;-76
2022/06/27 03:11:57;;;;;;;;;;;20.10;99.90;;;;;;5026738;28;19921;-76
2022/06/27 03:14:22;;;;;;;;;;;20.10;99.90;;;;;;5024245;28;20319;-76
2022/06/27 03:16:47;;;;;;;;;;;20.10;99.90;;;;;;5023458;28;19917;-76
2022/06/27 03:19:13;;;;;;;;;;;20.10;99.90;;;;;;5025152;28;19975;-76
2022/06/27 03:21:39;;;;;;;;;;;20.10;99.90;;;;;;5025818;28;19951;-76
2022/06/27 03:24:04;;;;;;;;;;;20.10;99.90;;;;;;5024532;28;19963;-77
2022/06/27 03:26:30;;;;;;;;;;;20.10;99.90;;;;;;5021869;28;19955;-76
2022/06/27 03:28:56;;;;;;;;;;;20.20;99.90;;;;;;5028936;28;20004;-76
2022/06/27 03:31:21;;;;;;;;;;;20.20;99.90;;;;;;5022532;28;19957;-76
2022/06/27 03:33:46;;;;;;;;;;;20.20;99.90;;;;;;5023351;28;19924;-76
2022/06/27 03:36:12;;;;;;;;;;;20.20;99.90;;;;;;5027438;28;19916;-76
2022/06/27 03:38:37;;;;;;;;;;;20.20;99.90;;;;;;5026308;28;19959;-75
2022/06/27 03:41:03;;;;;;;;;;;20.20;99.90;;;;;;5022134;28;20364;-76
2022/06/27 03:43:28;;;;;;;;;;;20.30;99.90;;;;;;5029474;28;20405;-75
2022/06/27 03:45:54;;;;;;;;;;;20.30;99.90;;;;;;5026539;28;19940;-76
2022/06/27 03:51:04;;;;;;;;;;;20.30;99.90;;;;;;5025088;28;19916;-76
2022/06/27 03:53:30;;;;;;;;;;;20.40;99.90;;;;;;5023417;28;19909;-76
2022/06/27 03:55:55;;;;;;;;;;;20.40;99.90;;;;;;5031006;28;19916;-76
2022/06/27 03:58:20;;;;;;;;;;;20.40;99.90;;;;;;5022464;28;19992;-77
2022/06/27 04:00:46;;;;;;;;;;;20.50;99.90;;;;;;5032243;28;19924;-76
2022/06/27 04:03:11;;;;;;;;;;;20.50;99.90;;;;;;5029371;28;19975;-76
2022/06/27 04:05:37;;;;;;;;;;;20.50;99.90;;;;;;5034079;28;19988;-76
2022/06/27 04:08:02;;;;;;;;;;;20.50;99.90;;;;;;5031852;28;19909;-76
2022/06/27 04:10:28;;;;;;;;;;;20.60;99.90;;;;;;5023771;28;20475;-76
2022/06/27 04:12:53;;;;;;;;;;;20.60;99.90;;;;;;5029513;28;19905;-76
2022/06/27 04:15:19;;;;;;;;;;;20.60;99.90;;;;;;5027369;28;20331;-76
2022/06/27 04:17:45;;;;;;;;;;;20.70;99.90;;;;;;5025319;28;19931;-76
2022/06/27 04:20:11;;;;;;;;;;;20.70;99.90;;;;;;5027997;28;19913;-76
2022/06/27 04:22:36;;;;;;;;;;;20.70;99.90;;;;;;5030215;28;19917;-76
2022/06/27 04:25:02;;;;;;;;;;;20.80;99.90;;;;;;5031287;28;19916;-76
2022/06/27 04:27:28;;;;;;;;;;;20.90;99.90;;;;;;5029226;28;19915;-80
2022/06/27 04:29:54;;;;;;;;;;;21.00;99.90;;;;;;5031473;28;19909;-77
2022/06/27 04:32:20;;;;;;;;;;;21.00;99.90;;;;;;5028217;28;20003;-77
2022/06/27 04:34:45;;;;;;;;;;;21.10;99.90;;;;;;5032482;28;19912;-78
2022/06/27 04:37:11;;;;;;;;;;;21.10;99.90;;;;;;5024888;28;19908;-78
2022/06/27 04:39:37;;;;;;;;;;;21.20;99.90;;;;;;5033329;28;19912;-78
2022/06/27 04:42:03;;;;;;;;;;;21.30;99.90;;;;;;5030960;28;19913;-78
2022/06/27 04:44:28;;;;;;;;;;;21.40;99.90;;;;;;5025098;28;19913;-77
2022/06/27 04:46:54;;;;;;;;;;;21.40;99.90;;;;;;5042215;28;19908;-78
2022/06/27 04:49:19;;;;;;;;;;;21.50;99.90;;;;;;5033860;28;20366;-76
2022/06/27 04:51:49;;;;;;;;;;;21.50;99.90;;;;;;5031754;28;19915;-76
2022/06/27 04:54:16;;;;;;;;;;;21.60;99.90;;;;;;5031662;28;19948;-77
2022/06/27 04:56:42;;;;;;;;;;;21.70;99.90;;;;;;5032046;28;19909;-75
2022/06/27 04:59:08;;;;;;;;;;;21.80;99.90;;;;;;5032499;28;19909;-80
2022/06/27 05:01:34;;;;;;;;;;;21.90;99.90;;;;;;5030782;28;20390;-80
2022/06/27 05:03:59;;;;;;;;;;;22.00;99.90;;;;;;5027039;28;19917;-80
2022/06/27 05:06:25;;;;;;;;;;;22.10;99.90;;;;;;5030921;28;19936;-80
2022/06/27 05:08:50;;;;;;;;;;;22.20;99.90;;;;;;5024326;28;19928;-80
2022/06/27 05:11:16;;;;;;;;;;;22.30;99.90;;;;;;5025461;28;19925;-80
2022/06/27 05:13:42;;;;;;;;;;;22.30;99.90;;;;;;5027480;28;19950;-80
2022/06/27 05:16:07;;;;;;;;;;;22.30;99.90;;;;;;5021590;28;19916;-79
2022/06/27 05:18:33;;;;;;;;;;;22.40;99.90;;;;;;5028315;28;19909;-80
2022/06/27 05:20:58;;;;;;;;;;;22.40;99.90;;;;;;5029613;28;20386;-80
2022/06/27 05:23:24;;;;;;;;;;;22.50;99.90;;;;;;5027456;28;19917;-80
2022/06/27 05:25:49;;;;;;;;;;;22.50;99.90;;;;;;5028545;28;19917;-79
2022/06/27 05:28:15;;;;;;;;;;;22.60;99.90;;;;;;5027030;28;19924;-80
2022/06/27 05:30:40;;;;;;;;;;;22.70;99.90;;;;;;5027913;28;19917;-80
2022/06/27 05:33:06;;;;;;;;;;;22.70;99.90;;;;;;5025229;28;19910;-78
2022/06/27 05:35:31;;;;;;;;;;;22.90;99.90;;;;;;5027618;28;19931;-78
2022/06/27 05:37:57;;;;;;;;;;;22.90;99.90;;;;;;5027946;28;19917;-83
2022/06/27 05:40:22;;;;;;;;;;;23.00;99.90;;;;;;5024140;28;20372;-76
2022/06/27 05:42:49;;;;;;;;;;;23.00;99.90;;;;;;5028140;28;19921;-76
2022/06/27 05:45:15;;;;;;;;;;;23.00;99.90;;;;;;5025550;28;19987;-76
2022/06/27 05:47:41;;;;;;;;;;;23.10;99.90;;;;;;5027724;28;20127;-75
2022/06/27 05:50:07;;;;;;;;;;;23.20;99.90;;;;;;5028836;28;20116;-75
2022/06/27 05:52:33;;;;;;;;;;;23.30;99.90;;;;;;5028578;28;19924;-79
2022/06/27 05:54:59;;;;;;;;;;;23.40;99.90;;;;;;5025838;28;19925;-78
2022/06/27 05:57:25;;;;;;;;;;;23.40;99.90;;;;;;5032445;28;19916;-78
2022/06/27 05:59:53;;;;;;;;;;;23.40;99.90;;;;;;5021570;28;19964;-77
2022/06/27 06:02:21;;;;;;;;;;;23.50;99.90;;;;;;5023883;28;19976;-79
2022/06/27 06:04:47;;;;;;;;;;;23.50;99.90;;;;;;5020208;28;20528;-76
2022/06/27 06:07:14;;;;;;;;;;;23.60;99.90;;;;;;5023290;28;20280;-77
2022/06/27 06:09:40;;;;;;;;;;;23.70;99.90;;;;;;5024325;28;19908;-78
2022/06/27 06:12:09;;;;;;;;;;;23.80;99.90;;;;;;5026182;28;19917;-78
2022/06/27 06:14:35;;;;;;;;;;;23.80;99.90;;;;;;5023436;28;19971;-77
2022/06/27 06:17:01;;;;;;;;;;;23.90;99.90;;;;;;5021365;28;20588;-78
2022/06/27 06:19:27;;;;;;;;;;;24.00;99.90;;;;;;5035441;28;19927;-78
2022/06/27 06:21:53;;;;;;;;;;;24.00;99.90;;;;;;5032639;28;19912;-78
2022/06/27 06:24:18;;;;;;;;;;;24.10;99.90;;;;;;5032617;28;19999;-79
2022/06/27 06:26:45;;;;;;;;;;;24.20;99.90;;;;;;5032059;28;19913;-81
2022/06/27 06:29:18;;;;;;;;;;;24.20;99.90;;;;;;5036761;28;19923;-77
2022/06/27 06:31:45;;;;;;;;;;;24.40;99.90;;;;;;5037847;28;19958;-77
2022/06/27 06:34:11;;;;;;;;;;;24.50;99.90;;;;;;5033666;28;19952;-76
2022/06/27 06:36:38;;;;;;;;;;;24.50;99.90;;;;;;5034421;28;20298;-77
2022/06/27 06:39:04;;;;;;;;;;;24.60;99.90;;;;;;5037075;28;20398;-77
2022/06/27 06:41:31;;;;;;;;;;;24.60;99.90;;;;;;5036881;28;19920;-78
2022/06/27 06:43:59;;;;;;;;;;;24.70;99.90;;;;;;5037414;28;19923;-80
2022/06/27 06:46:24;;;;;;;;;;;24.90;99.90;;;;;;5031251;28;21865;-79
2022/06/27 06:48:54;;;;;;;;;;;24.90;99.90;;;;;;5036776;28;19912;-79
2022/06/27 06:51:21;;;;;;;;;;;24.90;99.90;;;;;;5035111;28;19979;-79
2022/06/27 06:53:46;;;;;;;;;;;25.00;99.90;;;;;;5041574;28;19917;-81
2022/06/27 06:56:11;;;;;;;;;;;25.10;99.90;;;;;;5031821;28;21176;-80
2022/06/27 06:58:37;;;;;;;;;;;25.10;99.40;;;;;;5032785;28;19909;-80
2022/06/27 07:01:03;;;;;;;;;;;25.30;99.90;;;;;;5032438;28;19913;-79
2022/06/27 07:03:28;;;;;;;;;;;25.40;98.20;;;;;;5034934;28;19921;-79
2022/06/27 07:05:56;;;;;;;;;;;25.40;95.70;;;;;;5027400;28;20691;-83
2022/06/27 07:08:22;;;;;;;;;;;25.50;95.60;;;;;;5032780;28;19908;-77
2022/06/27 07:10:48;;;;;;;;;;;25.60;97.50;;;;;;5036580;28;20308;-75
2022/06/27 07:13:17;;;;;;;;;;;25.60;93.90;;;;;;5036010;28;19912;-79
2022/06/27 07:15:45;;;;;;;;;;;25.60;94.60;;;;;;5033867;28;19992;-82
2022/06/27 07:18:12;;;;;;;;;;;25.70;96.00;;;;;;5032862;28;20046;-80
2022/06/27 07:20:37;;;;;;;;;;;25.90;97.30;;;;;;5027562;28;20427;-81
2022/06/27 07:23:04;;;;;;;;;;;26.00;92.80;;;;;;5031373;28;19995;-78
2022/06/27 07:25:30;;;;;;;;;;;26.10;94.90;;;;;;5030015;28;19913;-79
2022/06/27 07:28:02;;;;;;;;;;;26.30;93.70;;;;;;5027258;28;20378;-78
2022/06/27 07:30:28;;;;;;;;;;;26.40;92.30;;;;;;5032348;28;19951;-78
2022/06/27 07:35:39;;;;;;;;;;;26.50;90.90;;;;;;5031434;28;20367;-79
2022/06/27 07:38:38;;;;;;;;;;;26.60;91.10;;;;;;5027984;28;19917;-78
2022/06/27 07:41:32;;;;;;;;;;;26.80;90.00;;;;;;4945147;29;19918;-78
2022/06/27 07:47:08;;;;;;;;;;;26.90;90.60;;;;;;4925333;28;19924;-77
2022/06/27 07:49:41;;;;;;;;;;;26.90;90.10;;;;;;4946021;28;19916;-77
2022/06/27 07:52:07;;;;;;;;;;;27.10;85.10;;;;;;5006115;28;19928;-79
2022/06/27 07:54:32;;;;;;;;;;;27.20;83.40;;;;;;5026248;28;19926;-79
2022/06/27 07:56:58;;;;;;;;;;;27.20;84.50;;;;;;5015275;28;20372;-79
2022/06/27 07:59:26;;;;;;;;;;;27.30;85.30;;;;;;5013636;28;19909;-85
2022/06/27 08:01:52;;;;;;;;;;;27.50;86.10;;;;;;5007088;28;21190;-79
2022/06/27 08:04:18;;;;;;;;;;;27.50;82.50;;;;;;5009476;28;19917;-80
2022/06/27 08:06:45;;;;;;;;;;;27.70;87.60;;;;;;4997877;28;19913;-78
2022/06/27 08:09:11;;;;;;;;;;;27.80;84.10;;;;;;5000618;28;19964;-79
2022/06/27 08:11:37;;;;;;;;;;;27.90;80.70;;;;;;5012122;28;19909;-80
2022/06/27 08:14:05;;;;;;;;;;;27.90;77.30;;;;;;5003462;28;19917;-82
2022/06/27 08:16:32;;;;;;;;;;;27.90;76.60;;;;;;5002765;28;19968;-83
2022/06/27 08:18:57;;;;;;;;;;;28.00;74.10;;;;;;5010683;28;20000;-81
2022/06/27 08:21:25;;;;;;;;;;;28.00;74.80;;;;;;5010270;28;20000;-83
2022/06/27 08:23:51;;;;;;;;;;;28.10;72.00;;;;;;5010829;28;19984;-81
2022/06/27 08:26:18;;;;;;;;;;;28.20;70.30;;;;;;5015296;28;19917;-82
2022/06/27 08:28:44;;;;;;;;;;;28.40;68.30;;;;;;5010073;28;19984;-81
2022/06/27 08:31:10;;;;;;;;;;;28.40;66.90;;;;;;5018776;28;19917;-83
2022/06/27 08:33:36;;;;;;;;;;;28.60;64.10;;;;;;5008380;28;19921;-79
2022/06/27 08:36:02;;;;;;;;;;;28.70;66.30;;;;;;5004098;28;19932;-82
2022/06/27 08:38:29;;;;;;;;;;;28.70;65.60;;;;;;4997738;28;19917;-84
2022/06/27 08:40:55;;;;;;;;;;;28.60;64.80;;;;;;5015684;28;19953;-81
2022/06/27 08:43:24;;;;;;;;;;;28.70;63.70;;;;;;5004300;28;19928;-80
2022/06/27 08:45:51;;;;;;;;;;;28.90;63.90;;;;;;5009027;28;19917;-84
2022/06/27 08:48:17;;;;;;;;;;;28.90;64.20;;;;;;5013032;28;19963;-82
2022/06/27 08:50:44;;;;;;;;;;;29.00;62.40;;;;;;5010651;28;20219;-80
2022/06/27 08:53:22;;;;;;;;;;;28.90;61.40;;;;;;5004170;28;20372;-76
2022/06/27 08:55:47;;;;;;;;;;;28.60;65.80;;;;;;5024197;28;19917;-76
2022/06/27 08:58:14;;;;;;;;;;;27.60;70.40;;;;;;5028815;28;20003;-78
2022/06/27 09:00:45;;;;;;;;;;;27.10;72.10;;;;;;5024054;28;19909;-77
2022/06/27 09:03:12;;;;;;;;;;;27.10;76.30;;;;;;5024704;28;20501;-77
2022/06/27 09:05:37;;;;;;;;;;;26.90;73.70;;;;;;5023506;28;19908;-76
2022/06/27 09:08:04;;;;;;;;;;;27.10;74.50;;;;;;5026299;28;19948;-77
2022/06/27 09:10:40;;;;;;;;;;;27.00;74.30;;;;;;5016854;28;19917;-76
2022/06/27 09:13:08;;;;;;;;;;;26.70;74.60;;;;;;5021500;28;19909;-78
2022/06/27 09:15:40;;;;;;;;;;;26.70;77.20;;;;;;5023554;28;19913;-81
2022/06/27 09:18:06;;;;;;;;;;;26.90;76.40;;;;;;5029826;28;19909;-82
2022/06/27 09:20:46;;;;;;;;;;;26.90;78.80;;;;;;5016272;28;19960;-80
2022/06/27 09:23:27;;;;;;;;;;;27.10;76.00;;;;;;5025759;28;19960;-83
2022/06/27 09:25:59;;;;;;;;;;;27.10;72.10;;;;;;5029472;28;19913;-81
2022/06/27 09:28:36;;;;;;;;;;;26.90;75.70;;;;;;5019906;28;20367;-80
2022/06/27 09:31:01;;;;;;;;;;;26.80;76.90;;;;;;5023584;28;19956;-87
2022/06/27 09:33:31;;;;;;;;;;;27.50;73.40;;;;;;5024029;28;20136;-87
2022/06/27 09:35:57;;;;;;;;;;;28.00;69.80;;;;;;5023215;28;20689;-86
2022/06/27 09:38:22;;;;;;;;;;;28.50;67.30;;;;;;5024256;28;19909;-84
2022/06/27 09:40:49;;;;;;;;;;;27.70;74.20;;;;;;5025859;28;19908;-85
2022/06/27 09:43:16;;;;;;;;;;;27.30;77.10;;;;;;5027806;28;20027;-84
2022/06/27 09:45:42;;;;;;;;;;;27.40;75.70;;;;;;5026450;28;19909;-84
2022/06/27 09:48:08;;;;;;;;;;;27.50;77.40;;;;;;5026045;28;19913;-86
2022/06/27 09:50:35;;;;;;;;;;;28.20;69.90;;;;;;5018669;28;19913;-79
2022/06/27 09:53:01;;;;;;;;;;;27.70;70.60;;;;;;5038547;28;19917;-80
2022/06/27 09:55:27;;;;;;;;;;;27.30;73.40;;;;;;5029297;28;19917;-78
2022/06/27 09:57:52;;;;;;;;;;;27.50;72.20;;;;;;5027205;28;19911;-80
2022/06/27 10:00:20;;;;;;;;;;;28.10;70.00;;;;;;5027417;28;19964;-80
2022/06/27 10:02:46;;;;;;;;;;;27.60;72.30;;;;;;5022593;28;20354;-78
2022/06/27 10:05:14;;;;;;;;;;;27.90;68.50;;;;;;5026096;28;19909;-77
2022/06/27 10:07:42;;;;;;;;;;;27.60;73.60;;;;;;5019349;28;19917;-80
2022/06/27 10:10:08;;;;;;;;;;;28.40;67.50;;;;;;5019246;28;20124;-81
2022/06/27 10:12:36;;;;;;;;;;;27.50;73.10;;;;;;5024277;28;20420;-82
2022/06/27 10:15:10;;;;;;;;;;;27.30;76.30;;;;;;5021296;28;20042;-82
2022/06/27 10:17:38;;;;;;;;;;;27.40;72.90;;;;;;5020842;28;19932;-80
2022/06/27 10:20:12;;;;;;;;;;;27.00;74.60;;;;;;5021561;28;19909;-81
2022/06/27 10:22:41;;;;;;;;;;;27.40;74.50;;;;;;5030856;28;19913;-78
2022/06/27 10:25:25;;;;;;;;;;;27.70;70.90;;;;;;5027755;28;19940;-79
2022/06/27 10:28:09;;;;;;;;;;;27.80;71.00;;;;;;5020808;28;19909;-80
2022/06/27 10:30:36;;;;;;;;;;;27.80;70.40;;;;;;5022483;28;19924;-79
2022/06/27 10:33:21;;;;;;;;;;;27.80;68.40;;;;;;5026617;28;19948;-79
2022/06/27 10:36:11;;;;;;;;;;;28.60;64.00;;;;;;5026290;28;19913;-82
2022/06/27 10:38:39;;;;;;;;;;;28.00;70.50;;;;;;5024587;28;19955;-81
2022/06/27 10:41:31;;;;;;;;;;;28.20;68.00;;;;;;5024564;28;19916;-80
2022/06/27 10:43:59;;;;;;;;;;;28.70;64.40;;;;;;5024140;28;19956;-80
2022/06/27 10:46:24;;;;;;;;;;;29.90;58.70;;;;;;5030220;28;19905;-80
2022/06/27 10:48:50;;;;;;;;;;;29.80;61.90;;;;;;5029146;28;20379;-81
2022/06/27 10:51:22;;;;;;;;;;;28.90;64.80;;;;;;5029326;28;20426;-80
2022/06/27 10:53:50;;;;;;;;;;;28.50;65.80;;;;;;5025753;28;19921;-81
2022/06/27 10:56:31;;;;;;;;;;;27.80;70.10;;;;;;5027755;28;19955;-82
2022/06/27 10:58:57;;;;;;;;;;;28.10;68.10;;;;;;5027816;28;20686;-82
2022/06/27 11:01:22;;;;;;;;;;;28.00;69.10;;;;;;5027716;28;19909;-81
2022/06/27 11:03:48;;;;;;;;;;;28.00;67.90;;;;;;5026599;28;20585;-80
2022/06/27 11:06:14;;;;;;;;;;;28.60;65.70;;;;;;5025664;28;20359;-79
2022/06/27 11:08:41;;;;;;;;;;;28.30;67.40;;;;;;5027561;28;19967;-83
2022/06/27 11:11:06;;;;;;;;;;;27.90;68.20;;;;;;5030168;28;19940;-81
2022/06/27 11:13:54;;;;;;;;;;;28.70;62.20;;;;;;5027035;28;20354;-81
2022/06/27 11:16:26;;;;;;;;;;;28.60;65.80;;;;;;5026424;28;19924;-80
2022/06/27 11:18:59;;;;;;;;;;;29.30;59.80;;;;;;5022186;28;19913;-77
2022/06/27 11:21:25;;;;;;;;;;;30.10;56.90;;;;;;5026968;28;19909;-77
2022/06/27 11:23:58;;;;;;;;;;;30.40;56.30;;;;;;5028147;28;19913;-77
2022/06/27 11:26:28;;;;;;;;;;;28.80;62.80;;;;;;5024923;28;19931;-78
2022/06/27 11:34:24;;;;;;;;;;;28.70;62.90;;;;;;5028851;28;19963;-77
2022/06/27 11:36:49;;;;;;;;;;;30.60;56.20;;;;;;5024893;28;20447;-78
2022/06/27 11:39:21;;;;;;;;;;;29.80;58.70;;;;;;5025933;28;19995;-79
2022/06/27 11:41:46;;;;;;;;;;;29.50;60.00;;;;;;5027127;28;19909;-77
2022/06/27 11:44:12;;;;;;;;;;;28.40;60.70;;;;;;5027730;28;19916;-77
2022/06/27 11:46:39;;;;;;;;;;;28.50;63.30;;;;;;5027072;28;19913;-78
2022/06/27 11:49:09;;;;;;;;;;;28.40;62.30;;;;;;5021138;28;20011;-78
2022/06/27 11:51:34;;;;;;;;;;;30.20;57.20;;;;;;5029062;28;20283;-79
2022/06/27 11:54:02;;;;;;;;;;;28.30;63.10;;;;;;5021221;28;19924;-79
2022/06/27 11:56:28;;;;;;;;;;;28.90;62.20;;;;;;5004844;28;19909;-77
2022/06/27 11:58:57;;;;;;;;;;;28.70;61.40;;;;;;5004737;28;19909;-78
2022/06/27 12:01:24;;;;;;;;;;;30.20;57.10;;;;;;5003855;28;19914;-78
2022/06/27 12:04:07;;;;;;;;;;;31.70;54.70;;;;;;5013562;28;20411;-79
2022/06/27 12:06:39;;;;;;;;;;;32.50;50.30;;;;;;5004134;28;19928;-81
2022/06/27 12:09:05;;;;;;;;;;;30.20;56.60;;;;;;5003265;28;19916;-76
2022/06/27 12:11:32;;;;;;;;;;;29.20;59.40;;;;;;5003254;28;19909;-79
2022/06/27 12:13:59;;;;;;;;;;;27.70;64.70;;;;;;5002766;28;20003;-80
2022/06/27 12:16:24;;;;;;;;;;;28.30;64.30;;;;;;5008851;28;19910;-80
2022/06/27 12:18:51;;;;;;;;;;;28.40;63.30;;;;;;5012098;28;19914;-81
2022/06/27 12:21:17;;;;;;;;;;;28.00;65.10;;;;;;5011541;28;20332;-80
2022/06/27 12:23:42;;;;;;;;;;;30.50;57.20;;;;;;5011112;28;19918;-78
2022/06/27 12:26:09;;;;;;;;;;;30.50;55.80;;;;;;5010624;28;19909;-76
2022/06/27 12:28:35;;;;;;;;;;;32.40;51.50;;;;;;5012077;28;19916;-75
2022/06/27 12:31:00;;;;;;;;;;;32.40;52.50;;;;;;5009022;28;20069;-75
2022/06/27 12:33:26;;;;;;;;;;;30.20;56.90;;;;;;5010333;28;19952;-76
2022/06/27 12:35:52;;;;;;;;;;;30.70;52.70;;;;;;5012342;28;19957;-80
2022/06/27 12:38:18;;;;;;;;;;;30.00;57.00;;;;;;5011703;28;19913;-76
2022/06/27 12:40:43;;;;;;;;;;;30.40;56.30;;;;;;5012825;28;20379;-78
2022/06/27 12:43:09;;;;;;;;;;;31.30;54.90;;;;;;5005182;28;20633;-77
2022/06/27 12:45:58;;;;;;;;;;;29.20;58.70;;;;;;5011012;28;19953;-78
2022/06/27 12:48:23;;;;;;;;;;;27.50;65.40;;;;;;5003419;28;19940;-80
2022/06/27 12:50:49;;;;;;;;;;;27.80;65.90;;;;;;5012581;28;20380;-80
2022/06/27 12:53:14;;;;;;;;;;;27.20;67.40;;;;;;5016083;28;20003;-79
2022/06/27 12:55:41;;;;;;;;;;;27.30;68.40;;;;;;5013338;28;19967;-80
2022/06/27 12:58:07;;;;;;;;;;;27.60;67.70;;;;;;5030818;28;19951;-79
2022/06/27 13:00:32;;;;;;;;;;;27.10;70.00;;;;;;5028417;28;20386;-79
2022/06/27 13:02:57;;;;;;;;;;;30.00;57.30;;;;;;5030273;28;19920;-80
2022/06/27 13:05:23;;;;;;;;;;;29.40;59.90;;;;;;5030990;28;19909;-80
2022/06/27 13:07:49;;;;;;;;;;;29.60;60.10;;;;;;5030130;28;19966;-80
2022/06/27 13:10:14;;;;;;;;;;;29.90;60.10;;;;;;5032170;28;19958;-79
2022/06/27 13:12:39;;;;;;;;;;;30.60;57.20;;;;;;5031978;28;19920;-79
2022/06/27 13:15:05;;;;;;;;;;;32.00;52.10;;;;;;5029833;28;19916;-79
2022/06/27 13:17:30;;;;;;;;;;;30.70;54.70;;;;;;5030461;28;20265;-81
2022/06/27 13:19:56;;;;;;;;;;;30.50;56.80;;;;;;5031340;28;19909;-80
2022/06/27 13:22:21;;;;;;;;;;;29.70;58.50;;;;;;5030672;28;19913;-81
2022/06/27 13:24:47;;;;;;;;;;;28.50;62.00;;;;;;5031759;28;19905;-81
2022/06/27 13:27:12;;;;;;;;;;;28.30;63.40;;;;;;5031814;28;20410;-80
2022/06/27 13:29:37;;;;;;;;;;;27.10;68.10;;;;;;5029977;28;19931;-80
2022/06/27 13:32:03;;;;;;;;;;;28.50;64.60;;;;;;5028925;28;19956;-79
2022/06/27 13:34:29;;;;;;;;;;;30.50;55.60;;;;;;5031712;28;20371;-79
2022/06/27 13:36:54;;;;;;;;;;;31.70;56.10;;;;;;5031856;28;20272;-79
2022/06/27 13:39:21;;;;;;;;;;;34.50;46.80;;;;;;5028610;28;19912;-79
2022/06/27 13:41:46;;;;;;;;;;;36.60;43.50;;;;;;5029382;28;19912;-78
2022/06/27 13:44:12;;;;;;;;;;;34.50;46.80;;;;;;5031671;28;20418;-76
2022/06/27 13:46:37;;;;;;;;;;;34.00;46.10;;;;;;5031255;28;19905;-79
2022/06/27 13:49:03;;;;;;;;;;;34.40;47.30;;;;;;5028790;28;19966;-78
2022/06/27 13:51:28;;;;;;;;;;;35.80;44.30;;;;;;5030690;28;19909;-78
2022/06/27 13:53:53;;;;;;;;;;;34.90;46.20;;;;;;5021701;28;19960;-78
2022/06/27 13:56:19;;;;;;;;;;;34.00;46.70;;;;;;5012012;28;20172;-79
2022/06/27 13:58:44;;;;;;;;;;;31.90;52.30;;;;;;5011322;28;20055;-78
2022/06/27 14:01:11;;;;;;;;;;;33.30;47.10;;;;;;5008570;28;20422;-77
2022/06/27 14:03:37;;;;;;;;;;;36.60;43.90;;;;;;5009381;28;19917;-79
2022/06/27 14:08:47;;;;;;;;;;;34.10;47.70;;;;;;5011154;28;19991;-77
2022/06/27 14:11:12;;;;;;;;;;;33.70;49.40;;;;;;5010230;28;20391;-79
2022/06/27 14:13:41;;;;;;;;;;;32.30;50.60;;;;;;5008836;28;20279;-79
2022/06/27 14:16:07;;;;;;;;;;;33.00;50.30;;;;;;5010926;28;19905;-78
2022/06/27 14:18:33;;;;;;;;;;;38.30;41.20;;;;;;5004911;28;20392;-79
2022/06/27 14:20:58;;;;;;;;;;;39.10;41.20;;;;;;5003422;28;19917;-80
2022/06/27 14:23:23;;;;;;;;;;;37.40;40.90;;;;;;5004255;28;19921;-84
2022/06/27 14:25:49;;;;;;;;;;;39.90;36.40;;;;;;5000116;28;20296;-80
2022/06/27 14:28:14;;;;;;;;;;;42.00;32.00;;;;;;5000332;28;20345;-78
2022/06/27 14:30:40;;;;;;;;;;;40.00;35.30;;;;;;5008489;28;19909;-81
2022/06/27 14:33:05;;;;;;;;;;;41.50;33.90;;;;;;5007319;28;20423;-82
2022/06/27 14:35:31;;;;;;;;;;;40.90;33.20;;;;;;5004457;28;20360;-79